Time;durP1;ratioP1;P1;durP2;ratioP2;P2;SDS_P1;SDS_P2;PMS_P1;PMS_P2;Temp;Humidity;BMP_temperature;BMP_pressure;BME280_temperature;BME280_humidity;BME280_pressure;Samples;Min_cycle;Max_cycle;Signal;HPM_P1;HPM_P2
2024/01/18 00:00:34;;;;;;;50.75;19.95;;;;;;;-2.40;100.00;98967.59;5005707;28;20434;-73
2024/01/18 00:03:00;;;;;;;45.15;20.88;;;;;;;-2.42;100.00;98963.56;5028282;28;20041;-73
2024/01/18 00:05:26;;;;;;;46.40;18.50;;;;;;;-2.38;100.00;98963.19;5028955;28;20060;-72
2024/01/18 00:07:51;;;;;;;41.17;20.13;;;;;;;-2.37;100.00;98974.97;5028007;28;20033;-72
2024/01/18 00:10:17;;;;;;;56.15;20.83;;;;;;;-2.40;100.00;98972.66;5011298;28;20021;-74
2024/01/18 00:12:42;;;;;;;43.88;18.35;;;;;;;-2.43;100.00;98975.44;5022400;28;20037;-74
2024/01/18 00:15:08;;;;;;;40.95;18.92;;;;;;;-2.37;100.00;98980.06;5012782;28;20029;-73
2024/01/18 00:17:33;;;;;;;49.10;21.33;;;;;;;-2.42;100.00;98977.06;5027723;28;20036;-72
2024/01/18 00:19:59;;;;;;;42.78;19.63;;;;;;;-2.42;100.00;98988.94;5027093;28;20486;-72
2024/01/18 00:22:25;;;;;;;43.13;19.75;;;;;;;-2.45;100.00;98990.00;5013105;28;20045;-73
2024/01/18 00:24:50;;;;;;;43.15;19.30;;;;;;;-2.38;100.00;99005.56;5021296;28;20026;-75
2024/01/18 00:27:16;;;;;;;45.58;20.08;;;;;;;-2.41;100.00;99003.25;5032895;28;20510;-72
2024/01/18 00:29:42;;;;;;;41.20;19.30;;;;;;;-2.46;100.00;99010.41;5010510;28;20072;-73
2024/01/18 00:32:07;;;;;;;52.85;20.38;;;;;;;-2.47;100.00;99012.13;5023129;28;20033;-73
2024/01/18 00:34:33;;;;;;;48.53;19.75;;;;;;;-2.43;100.00;99018.59;5001212;28;20475;-73
2024/01/18 00:36:58;;;;;;;45.47;20.58;;;;;;;-2.52;100.00;99010.84;5022694;28;20033;-74
2024/01/18 00:39:24;;;;;;;43.00;18.95;;;;;;;-2.58;100.00;99015.50;5006179;28;20557;-72
2024/01/18 00:41:50;;;;;;;40.53;20.05;;;;;;;-2.62;100.00;99016.66;5022862;28;20026;-72
2024/01/18 00:44:15;;;;;;;47.38;20.17;;;;;;;-2.59;100.00;99021.47;5007147;28;20033;-73
2024/01/18 00:46:41;;;;;;;50.67;21.80;;;;;;;-2.53;100.00;99024.50;5007825;28;20033;-73
2024/01/18 00:49:06;;;;;;;46.47;21.17;;;;;;;-2.57;100.00;99029.78;5018073;28;20697;-72
2024/01/18 00:51:32;;;;;;;53.90;21.15;;;;;;;-2.61;100.00;99028.41;5007467;28;20045;-72
2024/01/18 00:53:57;;;;;;;40.25;18.42;;;;;;;-2.62;100.00;99026.81;5027354;28;20195;-73
2024/01/18 00:56:23;;;;;;;41.22;20.00;;;;;;;-2.63;100.00;99019.31;5027965;28;20034;-74
2024/01/18 00:58:49;;;;;;;48.35;20.63;;;;;;;-2.61;100.00;99025.88;5010239;28;20056;-73
2024/01/18 01:01:15;;;;;;;42.67;20.35;;;;;;;-2.59;100.00;99030.84;5027043;28;20044;-75
2024/01/18 01:03:41;;;;;;;43.25;20.88;;;;;;;-2.51;100.00;99033.59;5029698;28;20033;-74
2024/01/18 01:06:10;;;;;;;42.85;20.80;;;;;;;-2.52;100.00;99048.94;5009205;28;20446;-72
2024/01/18 01:08:35;;;;;;;48.78;20.98;;;;;;;-2.55;100.00;99048.25;5011499;28;20123;-74
2024/01/18 01:11:08;;;;;;;49.25;21.63;;;;;;;-2.59;100.00;99051.94;5029662;28;20029;-72
2024/01/18 01:13:34;;;;;;;49.08;21.25;;;;;;;-2.57;100.00;99046.75;5009634;28;20511;-70
2024/01/18 01:15:59;;;;;;;52.78;21.65;;;;;;;-2.60;100.00;99052.88;5000973;28;20201;-70
2024/01/18 01:18:25;;;;;;;49.35;21.35;;;;;;;-2.57;100.00;99055.16;5022901;28;20050;-70
2024/01/18 01:20:50;;;;;;;49.90;22.00;;;;;;;-2.55;100.00;99060.94;5017409;28;20092;-70
2024/01/18 01:23:16;;;;;;;48.60;22.75;;;;;;;-2.56;100.00;99066.16;5019120;28;20041;-70
2024/01/18 01:25:41;;;;;;;51.75;21.73;;;;;;;-2.60;100.00;99059.66;4999563;28;20861;-69
2024/01/18 01:28:07;;;;;;;45.80;22.90;;;;;;;-2.62;100.00;99056.44;4995425;28;20071;-70
2024/01/18 01:30:32;;;;;;;53.25;21.25;;;;;;;-2.61;100.00;99061.41;5019798;28;20037;-69
2024/01/18 01:32:58;;;;;;;44.15;21.63;;;;;;;-2.64;100.00;99054.00;5000067;28;21575;-70
2024/01/18 01:35:23;;;;;;;44.22;20.83;;;;;;;-2.63;100.00;99070.06;4998148;28;20520;-69
2024/01/18 01:37:49;;;;;;;47.20;21.10;;;;;;;-2.65;100.00;99069.38;5019354;28;20045;-70
2024/01/18 01:40:14;;;;;;;46.05;20.75;;;;;;;-2.66;100.00;99082.97;5016947;28;20037;-72
2024/01/18 01:42:40;;;;;;;44.88;20.48;;;;;;;-2.67;100.00;99083.91;5018170;28;20041;-70
2024/01/18 01:45:06;;;;;;;45.17;21.10;;;;;;;-2.67;100.00;99094.84;5002011;28;20714;-70
2024/01/18 01:47:31;;;;;;;51.30;21.95;;;;;;;-2.66;100.00;99085.50;5019455;28;20040;-70
2024/01/18 01:49:57;;;;;;;50.33;21.50;;;;;;;-2.65;100.00;99082.84;5002874;28;20064;-70
2024/01/18 01:52:24;;;;;;;53.15;22.08;;;;;;;-2.66;100.00;99095.66;5016977;28;20049;-70
2024/01/18 01:54:50;;;;;;;46.53;21.48;;;;;;;-2.64;100.00;99099.69;5004841;28;20042;-70
2024/01/18 01:57:17;;;;;;;45.28;21.80;;;;;;;-2.63;100.00;99098.78;5003202;28;20619;-70
2024/01/18 01:59:45;;;;;;;51.25;21.15;;;;;;;-2.62;100.00;99097.88;5019778;28;20045;-70
2024/01/18 02:02:12;;;;;;;41.78;20.38;;;;;;;-2.62;100.00;99092.78;5018343;28;20041;-70
2024/01/18 02:04:37;;;;;;;45.05;20.50;;;;;;;-2.63;100.00;99091.16;5012124;28;20025;-71
2024/01/18 02:07:03;;;;;;;46.78;20.08;;;;;;;-2.64;100.00;99092.06;4992587;28;20040;-70
2024/01/18 02:09:29;;;;;;;44.85;20.35;;;;;;;-2.62;100.00;99094.50;5023870;28;20103;-69
2024/01/18 02:11:54;;;;;;;48.70;20.63;;;;;;;-2.61;100.00;99094.38;5005924;28;20038;-70
2024/01/18 02:14:21;;;;;;;48.22;20.40;;;;;;;-2.60;100.00;99095.19;4995908;28;20542;-70
2024/01/18 02:16:46;;;;;;;42.38;20.00;;;;;;;-2.59;100.00;99086.66;4998155;28;20069;-70
2024/01/18 02:19:12;;;;;;;44.35;20.63;;;;;;;-2.50;100.00;99101.22;5014335;28;20036;-70
2024/01/18 02:21:37;;;;;;;57.05;21.48;;;;;;;-2.56;100.00;99099.94;5019186;28;20100;-71
2024/01/18 02:24:15;;;;;;;50.72;21.50;;;;;;;-2.60;100.00;99101.09;5019846;28;20041;-70
2024/01/18 02:26:41;;;;;;;47.13;21.85;;;;;;;-2.55;100.00;99095.66;4998026;28;20056;-70
2024/01/18 02:29:06;;;;;;;45.63;21.33;;;;;;;-2.60;100.00;99103.63;5002913;28;20392;-69
2024/01/18 02:31:32;;;;;;;59.55;24.33;;;;;;;-2.42;100.00;99098.13;5020115;28;20045;-70
2024/01/18 02:33:57;;;;;;;48.53;21.30;;;;;;;-2.47;100.00;99100.19;5021870;28;20029;-70
2024/01/18 02:36:23;;;;;;;45.42;21.08;;;;;;;-2.53;100.00;99100.63;4989283;28;20029;-70
2024/01/18 02:38:50;;;;;;;52.45;22.35;;;;;;;-2.57;100.00;99098.31;5017903;28;20095;-70
2024/01/18 02:41:15;;;;;;;50.60;21.83;;;;;;;-2.49;100.00;99095.22;5005171;28;20163;-70
2024/01/18 02:43:41;;;;;;;50.72;22.02;;;;;;;-2.45;100.00;99091.53;5005417;28;20025;-70
2024/01/18 02:46:06;;;;;;;48.30;22.48;;;;;;;-2.50;100.00;99097.88;5004770;28;20029;-70
2024/01/18 02:48:32;;;;;;;49.35;21.80;;;;;;;-2.47;100.00;99098.44;5020565;28;20083;-70
2024/01/18 02:50:58;;;;;;;55.67;22.50;;;;;;;-2.60;100.00;99100.28;5019420;28;20740;-70
2024/01/18 02:53:23;;;;;;;47.25;21.90;;;;;;;-2.59;100.00;99104.44;5003693;28;20037;-69
2024/01/18 02:55:49;;;;;;;48.03;21.70;;;;;;;-2.62;100.00;99097.88;5025788;28;20029;-70
2024/01/18 02:58:15;;;;;;;52.05;23.85;;;;;;;-2.64;100.00;99104.75;4997394;28;20623;-70
2024/01/18 03:00:41;;;;;;;48.97;23.58;;;;;;;-2.65;100.00;99104.91;5007385;28;20072;-70
2024/01/18 03:03:06;;;;;;;52.25;23.55;;;;;;;-2.61;100.00;99103.75;5001897;28;20427;-70
2024/01/18 03:05:34;;;;;;;47.22;21.85;;;;;;;-2.63;100.00;99105.59;4999854;28;20025;-70
2024/01/18 03:08:00;;;;;;;46.78;20.55;;;;;;;-2.66;100.00;99113.41;4988771;28;20132;-70
2024/01/18 03:10:25;;;;;;;48.63;22.23;;;;;;;-2.68;100.00;99112.72;5006415;28;20205;-69
2024/01/18 03:12:51;;;;;;;45.22;21.50;;;;;;;-2.68;100.00;99107.66;5005944;28;20041;-70
2024/01/18 03:15:16;;;;;;;47.13;22.90;;;;;;;-2.68;100.00;99116.06;5005054;28;20028;-70
2024/01/18 03:17:41;;;;;;;56.05;23.00;;;;;;;-2.66;100.00;99113.41;5018083;28;20667;-70
2024/01/18 03:20:08;;;;;;;52.88;22.80;;;;;;;-2.65;100.00;99110.78;5020173;28;20503;-70
2024/01/18 03:22:37;;;;;;;48.75;22.15;;;;;;;-2.61;100.00;99113.91;5002075;28;20145;-70
2024/01/18 03:25:03;;;;;;;43.13;21.55;;;;;;;-2.62;100.00;99122.41;5020293;28;20052;-69
2024/01/18 03:27:30;;;;;;;51.17;21.35;;;;;;;-2.57;100.00;99118.63;5018041;28;20492;-70
2024/01/18 03:29:55;;;;;;;43.85;21.30;;;;;;;-2.60;100.00;99123.94;4999755;28;20172;-70
2024/01/18 03:32:21;;;;;;;49.45;22.80;;;;;;;-2.62;100.00;99120.72;5000651;28;20116;-69
2024/01/18 03:34:46;;;;;;;49.78;21.88;;;;;;;-2.63;100.00;99119.09;5017895;28;20033;-70
2024/01/18 03:37:11;;;;;;;54.28;22.52;;;;;;;-2.63;100.00;99115.75;5008215;28;20052;-70
2024/01/18 03:39:37;;;;;;;48.22;21.83;;;;;;;-2.68;100.00;99115.25;5025225;28;20064;-70
2024/01/18 03:42:03;;;;;;;47.60;22.83;;;;;;;-2.70;100.00;99110.28;5009530;28;20034;-70
2024/01/18 03:44:28;;;;;;;47.30;21.58;;;;;;;-2.65;100.00;99117.59;5004103;28;20073;-70
2024/01/18 03:46:54;;;;;;;46.08;21.05;;;;;;;-2.70;100.00;99112.03;5017867;28;20042;-70
2024/01/18 03:49:20;;;;;;;49.85;24.00;;;;;;;-2.65;100.00;99113.31;5005930;28;20036;-70
2024/01/18 03:51:46;;;;;;;76.32;30.95;;;;;;;-2.68;100.00;99118.59;4991078;28;20033;-70
2024/01/18 03:54:11;;;;;;;66.50;27.65;;;;;;;-2.66;100.00;99118.50;5025635;28;20025;-70
2024/01/18 03:56:37;;;;;;;57.60;24.52;;;;;;;-2.67;100.00;99114.34;5025980;28;20049;-70
2024/01/18 03:59:02;;;;;;;56.95;24.95;;;;;;;-2.69;100.00;99117.00;5004495;28;20045;-70
2024/01/18 04:01:34;;;;;;;52.97;23.67;;;;;;;-2.68;100.00;99122.88;5027225;28;20053;-70
2024/01/18 04:03:59;;;;;;;53.55;23.98;;;;;;;-2.68;100.00;99123.69;5003581;28;20099;-70
2024/01/18 04:06:25;;;;;;;47.83;23.60;;;;;;;-2.67;100.00;99124.50;5019287;28;20496;-70
2024/01/18 04:08:50;;;;;;;48.85;23.13;;;;;;;-2.68;100.00;99118.59;5024330;28;20142;-70
2024/01/18 04:11:16;;;;;;;47.03;22.58;;;;;;;-2.68;100.00;99120.34;5022944;28;20503;-70
2024/01/18 04:13:42;;;;;;;52.63;22.65;;;;;;;-2.68;100.00;99117.81;5021647;28;20060;-70
2024/01/18 04:16:08;;;;;;;45.97;22.08;;;;;;;-2.64;100.00;99126.81;5027221;28;20029;-70
2024/01/18 04:18:34;;;;;;;50.35;22.90;;;;;;;-2.62;100.00;99137.66;5025817;28;20438;-70
2024/01/18 04:20:59;;;;;;;52.70;22.70;;;;;;;-2.58;100.00;99142.41;5009317;28;20029;-69
2024/01/18 04:23:25;;;;;;;52.72;22.25;;;;;;;-2.56;100.00;99144.84;5026348;28;20044;-69
2024/01/18 04:25:51;;;;;;;58.78;23.98;;;;;;;-2.47;100.00;99148.41;5026238;28;20372;-70
2024/01/18 04:28:19;;;;;;;59.97;23.48;;;;;;;-2.56;100.00;99153.25;5005462;28;20030;-70
2024/01/18 04:30:45;;;;;;;52.78;23.35;;;;;;;-2.63;100.00;99152.06;5025120;28;20365;-69
2024/01/18 04:33:10;;;;;;;52.47;23.50;;;;;;;-2.69;100.00;99155.06;5024995;28;20045;-70
2024/01/18 04:35:36;;;;;;;53.88;23.20;;;;;;;-2.70;100.00;99166.13;5007643;28;20053;-70
2024/01/18 04:38:02;;;;;;;52.05;22.83;;;;;;;-2.64;100.00;99167.41;5009848;28;20037;-69
2024/01/18 04:40:28;;;;;;;54.50;22.83;;;;;;;-2.68;100.00;99171.09;5021994;28;20407;-70
2024/01/18 04:42:53;;;;;;;55.08;23.40;;;;;;;-2.71;100.00;99168.75;5023880;28;20105;-70
2024/01/18 04:45:19;;;;;;;49.20;22.52;;;;;;;-2.72;100.00;99175.59;5006586;28;20033;-70
2024/01/18 04:47:45;;;;;;;50.95;24.10;;;;;;;-2.75;100.00;99181.69;5024560;28;20045;-70
2024/01/18 04:50:11;;;;;;;51.47;23.25;;;;;;;-2.73;100.00;99181.59;5027146;28;20036;-70
2024/01/18 04:52:36;;;;;;;60.58;25.23;;;;;;;-2.71;100.00;99186.53;5022670;28;20076;-70
2024/01/18 04:55:05;;;;;;;49.58;24.10;;;;;;;-2.71;100.00;99186.53;5010249;28;20041;-70
2024/01/18 04:57:32;;;;;;;51.15;24.70;;;;;;;-2.74;100.00;99180.75;5008260;28;20034;-70
2024/01/18 04:59:58;;;;;;;51.42;22.65;;;;;;;-2.74;100.00;99183.28;5025185;28;20037;-69
2024/01/18 05:02:23;;;;;;;50.20;23.67;;;;;;;-2.74;100.00;99190.09;5024652;28;20041;-69
2024/01/18 05:04:49;;;;;;;54.38;24.58;;;;;;;-2.74;100.00;99188.38;5027987;28;20107;-70
2024/01/18 05:07:14;;;;;;;53.10;24.30;;;;;;;-2.75;100.00;99201.16;5002206;28;20045;-70
2024/01/18 05:09:40;;;;;;;46.40;23.65;;;;;;;-2.75;100.00;99203.69;5030076;28;20450;-69
2024/01/18 05:12:07;;;;;;;46.70;22.77;;;;;;;-2.75;100.00;99211.31;5023125;28;20045;-70
2024/01/18 05:14:32;;;;;;;48.33;24.33;;;;;;;-2.77;100.00;99203.00;5009525;28;20034;-70
2024/01/18 05:17:05;;;;;;;53.15;23.33;;;;;;;-2.77;100.00;99195.38;5026691;28;20396;-70
2024/01/18 05:19:31;;;;;;;50.97;23.77;;;;;;;-2.75;100.00;99203.69;5010885;28;20045;-70
2024/01/18 05:21:56;;;;;;;49.67;23.10;;;;;;;-2.76;100.00;99205.44;5023120;28;20053;-70
2024/01/18 05:24:22;;;;;;;51.25;24.42;;;;;;;-2.76;100.00;99213.06;5023092;28;20041;-69
2024/01/18 05:26:47;;;;;;;54.03;24.42;;;;;;;-2.76;100.00;99212.25;5026328;28;20041;-70
2024/01/18 05:29:13;;;;;;;52.92;22.88;;;;;;;-2.78;100.00;99219.97;5020766;28;20104;-70
2024/01/18 05:31:39;;;;;;;46.15;22.02;;;;;;;-2.78;100.00;99226.78;5020558;28;20041;-70
2024/01/18 05:34:05;;;;;;;52.40;23.75;;;;;;;-2.80;100.00;99224.34;5024282;28;20030;-70
2024/01/18 05:36:31;;;;;;;47.35;22.35;;;;;;;-2.82;100.00;99226.19;5024455;28;20102;-69
2024/01/18 05:38:56;;;;;;;46.63;23.55;;;;;;;-2.83;100.00;99229.63;5023169;28;20487;-70
2024/01/18 05:41:21;;;;;;;52.10;23.58;;;;;;;-2.84;100.00;99229.75;5023242;28;20087;-70
2024/01/18 05:43:47;;;;;;;48.17;22.77;;;;;;;-2.83;100.00;99228.81;5005151;28;20029;-70
2024/01/18 05:46:12;;;;;;;50.53;22.85;;;;;;;-2.84;100.00;99229.75;5006854;28;20096;-70
2024/01/18 05:48:38;;;;;;;49.17;23.80;;;;;;;-2.85;100.00;99228.13;5009385;28;20042;-72
2024/01/18 05:51:04;;;;;;;51.05;22.27;;;;;;;-2.86;100.00;99223.94;5021378;28;20439;-69
2024/01/18 05:53:29;;;;;;;49.28;22.30;;;;;;;-2.87;100.00;99232.50;5007256;28;20041;-69
2024/01/18 05:55:55;;;;;;;54.42;24.23;;;;;;;-2.89;100.00;99242.75;5022366;28;20029;-69
2024/01/18 05:58:20;;;;;;;53.97;23.83;;;;;;;-2.92;100.00;99232.81;5009158;28;20029;-69
2024/01/18 06:00:46;;;;;;;47.42;22.48;;;;;;;-2.94;100.00;99235.47;5006185;28;20040;-70
2024/01/18 06:03:11;;;;;;;54.03;23.17;;;;;;;-2.95;100.00;99254.13;5005537;28;20041;-70
2024/01/18 06:05:37;;;;;;;55.72;23.88;;;;;;;-2.97;100.00;99261.03;5022487;28;20033;-70
2024/01/18 06:08:02;;;;;;;56.22;23.70;;;;;;;-2.98;100.00;99266.22;5006840;28;20029;-69
2024/01/18 06:10:28;;;;;;;58.22;24.40;;;;;;;-2.99;100.00;99272.22;5021862;28;20518;-69
2024/01/18 06:12:53;;;;;;;51.38;23.92;;;;;;;-3.00;100.00;99273.94;5018592;28;20109;-69
2024/01/18 06:15:19;;;;;;;56.80;25.40;;;;;;;-2.98;100.00;99273.81;5005788;28;20052;-69
2024/01/18 06:17:44;;;;;;;52.53;23.95;;;;;;;-3.01;100.00;99271.53;5019148;28;20045;-70
2024/01/18 06:20:13;;;;;;;48.17;22.33;;;;;;;-3.01;100.00;99279.13;5021440;28;20034;-70
2024/01/18 06:22:39;;;;;;;53.55;25.00;;;;;;;-3.02;100.00;99287.66;5019988;28;20041;-70
2024/01/18 06:25:04;;;;;;;45.85;23.15;;;;;;;-3.03;100.00;99286.84;5019794;28;20080;-70
2024/01/18 06:27:31;;;;;;;49.20;23.75;;;;;;;-3.03;100.00;99286.84;5022533;28;20037;-70
2024/01/18 06:29:57;;;;;;;50.70;24.00;;;;;;;-3.04;100.00;99297.91;5018650;28;20049;-70
2024/01/18 06:32:22;;;;;;;53.70;23.38;;;;;;;-3.03;100.00;99302.06;4987684;28;20056;-70
2024/01/18 06:34:48;;;;;;;52.55;24.52;;;;;;;-3.07;100.00;99305.72;5002357;28;20488;-69
2024/01/18 06:37:13;;;;;;;47.78;22.77;;;;;;;-3.09;100.00;99306.72;5003223;28;20037;-70
2024/01/18 06:39:39;;;;;;;53.78;22.80;;;;;;;-3.11;100.00;99314.44;5022804;28;20041;-69
2024/01/18 06:42:07;;;;;;;49.10;22.38;;;;;;;-3.14;100.00;99320.53;5003146;28;20036;-70
2024/01/18 06:44:33;;;;;;;54.22;23.98;;;;;;;-3.16;100.00;99321.56;5008327;28;20029;-69
2024/01/18 06:46:59;;;;;;;50.83;22.60;;;;;;;-3.21;100.00;99323.59;5005750;28;20068;-70
2024/01/18 06:49:24;;;;;;;47.28;23.23;;;;;;;-3.25;100.00;99329.81;5005712;28;20029;-70
2024/01/18 06:51:50;;;;;;;53.33;23.30;;;;;;;-3.28;100.00;99324.94;5005042;28;20450;-69
2024/01/18 06:54:21;;;;;;;58.70;23.75;;;;;;;-3.31;100.00;99320.88;5018634;28;20063;-69
2024/01/18 06:56:47;;;;;;;54.40;23.85;;;;;;;-3.33;100.00;99326.06;5019583;28;20129;-69
2024/01/18 06:59:14;;;;;;;50.30;24.23;;;;;;;-3.35;100.00;99337.22;5023044;28;20037;-69
2024/01/18 07:01:39;;;;;;;51.30;22.90;;;;;;;-3.36;100.00;99344.00;5006333;28;20080;-69
2024/01/18 07:04:05;;;;;;;50.42;23.38;;;;;;;-3.40;100.00;99332.44;5022272;28;20037;-72
2024/01/18 07:06:31;;;;;;;49.50;23.20;;;;;;;-3.41;100.00;99346.03;4999697;28;20030;-72
2024/01/18 07:08:56;;;;;;;55.28;22.63;;;;;;;-3.42;100.00;99343.59;5007554;28;20092;-69
2024/01/18 07:11:22;;;;;;;46.75;22.52;;;;;;;-3.45;100.00;99349.66;5014777;28;20373;-69
2024/01/18 07:13:47;;;;;;;46.78;21.63;;;;;;;-3.48;100.00;99354.13;5022482;28;20037;-69
2024/01/18 07:16:13;;;;;;;49.05;21.88;;;;;;;-3.55;100.00;99376.56;5019897;28;20510;-69
2024/01/18 07:18:38;;;;;;;45.40;21.33;;;;;;;-3.73;100.00;99371.78;5023254;28;20514;-69
2024/01/18 07:21:04;;;;;;;60.10;23.45;;;;;;;-3.83;100.00;99380.88;5018881;28;20348;-69
2024/01/18 07:23:30;;;;;;;52.10;23.35;;;;;;;-3.86;100.00;99381.09;5002725;28;20484;-69
2024/01/18 07:25:56;;;;;;;53.92;24.80;;;;;;;-3.85;100.00;99377.63;5006854;28;20037;-69
2024/01/18 07:28:21;;;;;;;48.17;24.00;;;;;;;-3.86;100.00;99385.31;4991330;28;20091;-69
2024/01/18 07:30:47;;;;;;;54.38;23.25;;;;;;;-3.84;100.00;99375.88;5024688;28;20029;-69
2024/01/18 07:33:12;;;;;;;53.75;23.73;;;;;;;-3.83;100.00;99377.53;5016056;28;20037;-69
2024/01/18 07:35:38;;;;;;;45.28;22.40;;;;;;;-3.80;100.00;99382.41;5019845;28;20049;-69
2024/01/18 07:38:04;;;;;;;56.72;23.25;;;;;;;-3.81;100.00;99384.09;4987402;28;20054;-70
2024/01/18 07:40:29;;;;;;;44.85;21.38;;;;;;;-3.81;100.00;99390.91;5023008;28;20126;-70
2024/01/18 07:42:55;;;;;;;53.55;22.45;;;;;;;-3.82;100.00;99402.78;5005169;28;20049;-70
2024/01/18 07:45:20;;;;;;;43.95;20.95;;;;;;;-3.83;100.00;99415.53;5003833;28;20057;-70
2024/01/18 07:47:46;;;;;;;42.25;21.10;;;;;;;-3.85;100.00;99419.88;5005976;28;20033;-70
2024/01/18 07:50:12;;;;;;;60.53;24.15;;;;;;;-3.86;100.00;99420.78;5007248;28;20033;-70
2024/01/18 07:52:38;;;;;;;64.95;24.63;;;;;;;-3.88;100.00;99412.47;5004250;28;20049;-70
2024/01/18 07:55:08;;;;;;;51.78;22.83;;;;;;;-3.89;100.00;99423.53;5017122;28;20038;-70
2024/01/18 07:57:34;;;;;;;42.58;20.70;;;;;;;-3.92;100.00;99425.34;4989234;28;20041;-70
2024/01/18 08:00:00;;;;;;;44.15;20.40;;;;;;;-3.94;100.00;99426.31;5006793;28;20033;-70
2024/01/18 08:02:26;;;;;;;51.78;21.52;;;;;;;-3.96;100.00;99433.22;5021532;28;20045;-70
2024/01/18 08:04:52;;;;;;;42.80;19.55;;;;;;;-3.99;100.00;99426.63;5003815;28;20021;-70
2024/01/18 08:07:17;;;;;;;46.90;20.38;;;;;;;-4.02;100.00;99436.94;5000745;28;20399;-69
2024/01/18 08:09:43;;;;;;;44.05;18.77;;;;;;;-4.04;100.00;99438.75;5005031;28;20033;-69
2024/01/18 08:12:08;;;;;;;43.70;18.50;;;;;;;-4.07;100.00;99441.47;5000387;28;20526;-70
2024/01/18 08:14:41;;;;;;;39.90;19.88;;;;;;;-4.07;100.00;99450.81;5004110;28;20037;-69
2024/01/18 08:17:06;;;;;;;42.45;19.45;;;;;;;-4.07;100.00;99446.53;5017860;28;20492;-70
2024/01/18 08:19:32;;;;;;;41.92;19.92;;;;;;;-4.05;100.00;99454.06;5024886;28;20037;-69
2024/01/18 08:21:58;;;;;;;51.35;20.40;;;;;;;-4.04;100.00;99451.44;5021239;28;20514;-70
2024/01/18 08:24:23;;;;;;;41.45;19.38;;;;;;;-4.04;100.00;99460.75;5024336;28;20045;-69
2024/01/18 08:26:49;;;;;;;51.17;20.23;;;;;;;-4.03;100.00;99457.28;5026410;28;20073;-69
2024/01/18 08:29:14;;;;;;;48.78;21.42;;;;;;;-4.00;100.00;99469.78;5010754;28;20599;-69
2024/01/18 08:31:40;;;;;;;45.83;19.95;;;;;;;-3.98;100.00;99473.03;5025206;28;20037;-69
2024/01/18 08:34:07;;;;;;;46.97;21.30;;;;;;;-3.97;100.00;99467.88;5008850;28;20045;-69
2024/01/18 08:36:33;;;;;;;45.90;21.23;;;;;;;-3.96;100.00;99476.28;5007500;28;20034;-69
2024/01/18 08:38:59;;;;;;;54.33;21.73;;;;;;;-3.96;100.00;99478.81;4994587;28;20071;-69
2024/01/18 08:41:24;;;;;;;42.90;21.00;;;;;;;-3.94;100.00;99487.94;5010446;28;20446;-69
2024/01/18 08:43:50;;;;;;;49.85;21.60;;;;;;;-3.94;100.00;99487.13;5012491;28;20045;-69
2024/01/18 08:46:15;;;;;;;43.80;21.10;;;;;;;-3.92;100.00;99497.97;5008371;28;20033;-69
2024/01/18 08:48:41;;;;;;;48.80;22.30;;;;;;;-3.89;100.00;99496.97;5006544;28;20397;-69
2024/01/18 08:51:13;;;;;;;44.80;20.95;;;;;;;-3.93;100.00;99504.75;5013895;28;20037;-69
2024/01/18 08:53:43;;;;;;;41.22;21.13;;;;;;;-3.91;100.00;99510.53;4992303;28;20045;-69
2024/01/18 08:56:08;;;;;;;45.80;21.48;;;;;;;-3.91;100.00;99517.34;5022222;28;20060;-70
2024/01/18 08:58:35;;;;;;;48.97;19.83;;;;;;;-3.93;100.00;99519.97;5006915;28;20061;-69
2024/01/18 09:01:01;;;;;;;50.50;21.90;;;;;;;-3.90;100.00;99524.00;5010710;28;20112;-69
2024/01/18 09:03:27;;;;;;;43.53;20.35;;;;;;;-3.85;100.00;99533.88;5024610;28;20033;-69
2024/01/18 09:05:52;;;;;;;50.00;20.83;;;;;;;-3.83;100.00;99539.66;5012033;28;20487;-69
2024/01/18 09:08:18;;;;;;;47.00;20.63;;;;;;;-3.80;100.00;99547.88;5021765;28;20116;-69
2024/01/18 09:10:43;;;;;;;46.60;21.60;;;;;;;-3.76;100.00;99551.03;5012363;28;20444;-69
2024/01/18 09:13:09;;;;;;;53.30;22.60;;;;;;;-3.68;100.00;99553.09;5024205;28;20041;-69
2024/01/18 09:15:36;;;;;;;51.58;23.55;;;;;;;-3.66;100.00;99564.75;5023090;28;20077;-69
2024/01/18 09:18:01;;;;;;;53.95;22.98;;;;;;;-3.61;100.00;99560.22;5005785;28;20033;-70
2024/01/18 09:20:27;;;;;;;45.65;22.63;;;;;;;-3.53;100.00;99560.53;4990587;28;20055;-69
2024/01/18 09:22:52;;;;;;;56.22;23.40;;;;;;;-3.40;100.00;99563.13;5007921;28;20046;-70
2024/01/18 09:25:18;;;;;;;48.92;22.95;;;;;;;-3.39;100.00;99576.59;5022151;28;20038;-69
2024/01/18 09:27:44;;;;;;;58.17;24.38;;;;;;;-3.44;100.00;99571.84;5011285;28;20039;-70
2024/01/18 09:30:10;;;;;;;54.15;24.45;;;;;;;-3.42;100.00;99580.16;5010218;28;20476;-70
2024/01/18 09:32:36;;;;;;;50.40;23.83;;;;;;;-3.35;100.00;99594.09;5009093;28;20080;-70
2024/01/18 09:35:02;;;;;;;59.40;25.10;;;;;;;-3.34;100.00;99598.22;5009485;28;22792;-71
2024/01/18 09:37:31;;;;;;;56.80;24.40;;;;;;;-3.35;100.00;99604.22;5009119;28;20408;-72
2024/01/18 09:39:57;;;;;;;51.58;24.63;;;;;;;-3.37;100.00;99603.50;5005190;28;20512;-72
2024/01/18 09:42:28;;;;;;;53.55;23.40;;;;;;;-3.35;100.00;99611.03;4995936;28;20137;-72
2024/01/18 09:45:04;;;;;;;50.53;23.08;;;;;;;-3.31;100.00;99607.38;5028583;28;20048;-76
2024/01/18 09:47:30;;;;;;;50.63;23.08;;;;;;;-3.20;100.00;99620.19;5024216;28;20503;-75
2024/01/18 09:49:58;;;;;;;48.83;22.98;;;;;;;-3.13;100.00;99621.44;5011512;28;20056;-75
2024/01/18 09:52:24;;;;;;;46.17;21.92;;;;;;;-3.07;100.00;99627.84;5030659;28;20104;-75
2024/01/18 09:54:49;;;;;;;50.53;22.52;;;;;;;-2.99;100.00;99629.91;5022145;28;20490;-75
2024/01/18 09:57:22;;;;;;;51.67;21.50;;;;;;;-2.92;100.00;99630.31;4995676;28;20041;-75
2024/01/18 09:59:50;;;;;;;42.70;20.23;;;;;;;-2.85;100.00;99632.34;5012191;28;20032;-75
2024/01/18 10:02:15;;;;;;;44.35;19.55;;;;;;;-2.81;100.00;99641.38;5011316;28;20041;-73
2024/01/18 10:04:41;;;;;;;49.53;21.85;;;;;;;-2.79;100.00;99653.97;5027586;28;20104;-73
2024/01/18 10:07:08;;;;;;;42.22;18.88;;;;;;;-2.74;100.00;99657.84;5008427;28;20033;-73
2024/01/18 10:09:34;;;;;;;43.72;18.70;;;;;;;-2.67;100.00;99658.28;5002173;28;20067;-73
2024/01/18 10:11:59;;;;;;;33.17;17.83;;;;;;;-2.53;100.00;99665.00;5025866;28;20638;-73
2024/01/18 10:14:42;;;;;;;36.05;17.33;;;;;;;-2.43;100.00;99673.66;5025891;28;20037;-73
2024/01/18 10:17:08;;;;;;;36.38;18.17;;;;;;;-2.44;100.00;99673.75;5002242;28;20068;-73
2024/01/18 10:19:34;;;;;;;35.47;16.60;;;;;;;-2.38;100.00;99679.22;5020125;28;20519;-73
2024/01/18 10:22:02;;;;;;;40.53;16.23;;;;;;;-2.37;100.00;99680.88;5021273;28;20052;-73
2024/01/18 10:24:29;;;;;;;38.28;15.85;;;;;;;-2.33;100.00;99681.47;5010112;28;20087;-73
2024/01/18 10:27:04;;;;;;;34.00;16.05;;;;;;;-2.31;100.00;99682.19;5006883;28;20055;-72
2024/01/18 10:29:37;;;;;;;35.83;15.82;;;;;;;-2.32;100.00;99690.72;5012785;28;20037;-72
2024/01/18 10:32:03;;;;;;;33.22;15.30;;;;;;;-2.27;100.00;99690.44;4993069;28;20053;-74
2024/01/18 10:34:34;;;;;;;45.08;16.70;;;;;;;-2.16;100.00;99700.69;4992631;28;20033;-71
2024/01/18 10:37:00;;;;;;;37.65;15.60;;;;;;;-2.08;100.00;99705.25;5006681;28;20050;-72
2024/01/18 10:39:25;;;;;;;34.70;15.85;;;;;;;-2.08;100.00;99706.06;5012185;28;20045;-72
2024/01/18 10:41:51;;;;;;;34.83;14.80;;;;;;;-2.07;100.00;99709.41;5007430;28;20076;-72
2024/01/18 10:44:17;;;;;;;33.55;15.57;;;;;;;-1.98;100.00;99722.34;4988163;28;20048;-72
2024/01/18 10:46:43;;;;;;;33.50;15.32;;;;;;;-1.82;100.00;99711.97;5004006;28;20041;-72
2024/01/18 10:49:10;;;;;;;30.73;14.23;;;;;;;-1.86;100.00;99710.53;5024874;28;20037;-72
2024/01/18 10:51:39;;;;;;;28.38;13.52;;;;;;;-1.81;100.00;99712.75;5022278;28;20037;-72
2024/01/18 10:54:10;;;;;;;25.58;12.68;;;;;;;-1.81;100.00;99710.22;5009407;28;20047;-72
2024/01/18 10:56:36;;;;;;;29.95;14.40;;;;;;;-1.81;100.00;99713.59;4991351;28;20030;-72
2024/01/18 10:59:04;;;;;;;36.35;14.38;;;;;;;-1.78;100.00;99728.63;4989637;28;20510;-72
2024/01/18 11:01:32;;;;;;;27.98;14.15;;;;;;;-1.74;100.00;99726.69;5020630;28;20072;-71
2024/01/18 11:03:58;;;;;;;32.50;16.50;;;;;;;-1.66;100.00;99733.81;5024404;28;20048;-71